Time;durP1;ratioP1;P1;durP2;ratioP2;P2;SDS_P1;SDS_P2;PMS_P1;PMS_P2;Temp;Humidity;BMP_temperature;BMP_pressure;BME280_temperature;BME280_humidity;BME280_pressure;Samples;Min_cycle;Max_cycle;Signal;HPM_P1;HPM_P2
2021/07/26 00:05:05;;;;;;;9.60;1.83;;;21.70;66.40;;;;;;20729837;28;81135;-69
2021/07/26 00:15:07;;;;;;;3.88;1.70;;;21.70;66.00;;;;;;20739018;28;81318;-67
2021/07/26 00:25:10;;;;;;;3.60;1.98;;;21.70;66.00;;;;;;20711724;28;81178;-68
2021/07/26 00:35:12;;;;;;;4.63;2.10;;;21.60;66.90;;;;;;20741370;28;81332;-69
2021/07/26 00:45:13;;;;;;;;;;;21.50;67.40;;;;;;20722491;28;81029;-68
2021/07/26 00:55:16;;;;;;;4.97;2.10;;;21.40;68.00;;;;;;20751493;28;80640;-68
2021/07/26 01:05:18;;;;;;;4.32;2.00;;;21.40;66.30;;;;;;20713216;28;80467;-68
2021/07/26 01:15:21;;;;;;;4.55;2.30;;;21.40;65.80;;;;;;20720240;28;81366;-69
2021/07/26 01:25:25;;;;;;;3.28;2.10;;;21.40;65.30;;;;;;20727317;28;81709;-69
2021/07/26 01:35:30;;;;;;;4.57;2.70;;;21.40;65.60;;;;;;20717090;28;80560;-66
2021/07/26 01:45:37;;;;;;;3.63;2.30;;;21.30;65.70;;;;;;20721285;28;80486;-66
2021/07/26 01:55:40;;;;;;;3.75;2.58;;;21.20;66.80;;;;;;20726443;28;80827;-66
2021/07/26 02:05:56;;;;;;;3.72;1.70;;;21.10;67.40;;;;;;20720118;28;80793;-66
2021/07/26 02:16:00;;;;;;;3.00;1.55;;;21.20;68.00;;;;;;20729932;28;80382;-67
2021/07/26 02:26:05;;;;;;;3.50;1.70;;;21.20;68.20;;;;;;20715511;28;81052;-65
2021/07/26 02:36:08;;;;;;;2.58;1.20;;;21.20;68.90;;;;;;20719354;28;81144;-68
2021/07/26 02:46:11;;;;;;;2.65;1.35;;;21.10;69.30;;;;;;20726297;28;81537;-68
2021/07/26 02:56:14;;;;;;;6.03;1.40;;;21.10;69.20;;;;;;20710768;28;81402;-67
2021/07/26 03:06:21;;;;;;;3.75;1.80;;;21.00;69.60;;;;;;20709759;28;80744;-67
2021/07/26 03:16:26;;;;;;;4.53;2.20;;;21.00;69.70;;;;;;20731343;28;81696;-67
2021/07/26 03:26:31;;;;;;;5.28;2.00;;;20.90;69.90;;;;;;20736741;28;80787;-67
2021/07/26 03:36:34;;;;;;;3.38;1.83;;;20.90;70.30;;;;;;20749291;28;81229;-67
2021/07/26 03:46:38;;;;;;;3.53;2.10;;;20.90;70.10;;;;;;20721434;28;80783;-68
2021/07/26 03:56:41;;;;;;;7.18;2.55;;;20.90;69.90;;;;;;20721506;28;80714;-68
2021/07/26 04:06:49;;;;;;;5.43;2.30;;;20.90;69.90;;;;;;20705222;28;80745;-67
2021/07/26 04:16:52;;;;;;;5.65;2.50;;;20.70;69.90;;;;;;20715153;28;83056;-67
2021/07/26 04:26:57;;;;;;;9.90;3.22;;;20.60;70.10;;;;;;20778826;28;80449;-67
2021/07/26 04:37:00;;;;;;;5.57;2.83;;;20.60;70.50;;;;;;20759525;28;80889;-67
2021/07/26 04:47:04;;;;;;;6.28;2.47;;;20.70;69.80;;;;;;20714311;28;81919;-68
2021/07/26 04:57:08;;;;;;;7.80;2.38;;;20.60;69.40;;;;;;20731469;28;80680;-68
2021/07/26 05:07:12;;;;;;;7.82;2.50;;;20.70;68.80;;;;;;20723414;28;80685;-68
2021/07/26 05:17:19;;;;;;;7.10;2.30;;;20.50;69.00;;;;;;20760991;28;80773;-68
2021/07/26 05:27:22;;;;;;;7.63;2.80;;;20.50;69.00;;;;;;20736802;28;81174;-66
2021/07/26 05:37:24;;;;;;;11.45;2.97;;;20.40;69.10;;;;;;20735705;28;81244;-65
2021/07/26 05:47:27;;;;;;;6.10;2.78;;;20.40;68.80;;;;;;20738242;28;80325;-65
2021/07/26 05:57:34;;;;;;;5.97;2.88;;;20.50;68.00;;;;;;20748697;28;80503;-67
2021/07/26 06:07:36;;;;;;;7.85;3.05;;;20.50;68.20;;;;;;20720466;28;81325;-67
2021/07/26 06:17:38;;;;;;;;;;;20.60;68.40;;;;;;20737161;28;80593;-66
2021/07/26 06:27:41;;;;;;;7.32;3.00;;;20.60;68.40;;;;;;20759623;28;80700;-66
2021/07/26 06:37:44;;;;;;;7.10;3.70;;;20.80;68.00;;;;;;20745309;28;80110;-68
2021/07/26 06:47:49;;;;;;;80.43;45.20;;;20.90;68.00;;;;;;20727405;28;81730;-68
2021/07/26 06:57:51;;;;;;;28.02;20.38;;;21.00;67.30;;;;;;20710084;28;84058;-69
2021/07/26 07:07:53;;;;;;;31.77;22.30;;;21.40;66.40;;;;;;20727799;28;84556;-69
2021/07/26 07:17:55;;;;;;;8.07;4.07;;;21.60;66.00;;;;;;20737276;28;83288;-69
2021/07/26 07:27:57;;;;;;;9.57;3.80;;;21.70;66.00;;;;;;20743410;28;83148;-69
2021/07/26 07:38:00;;;;;;;21.63;14.95;;;21.90;65.10;;;;;;20750224;28;80070;-71
2021/07/26 07:48:04;;;;;;;6.85;4.30;;;22.20;62.70;;;;;;20744816;28;84124;-71
2021/07/26 07:58:06;;;;;;;9.05;4.00;;;22.50;61.50;;;;;;20747802;28;83324;-71
2021/07/26 08:08:08;;;;;;;6.28;3.97;;;22.80;60.20;;;;;;20744746;28;80755;-71
2021/07/26 08:18:10;;;;;;;6.32;3.00;;;23.00;59.10;;;;;;20748583;28;82178;-69
2021/07/26 08:28:15;;;;;;;5.15;3.67;;;23.10;58.90;;;;;;20723867;28;81067;-70
2021/07/26 08:38:18;;;;;;;8.40;3.80;;;23.40;58.10;;;;;;20741733;28;80814;-69
2021/07/26 08:48:24;;;;;;;5.03;3.50;;;23.60;57.10;;;;;;20725162;28;81880;-70
2021/07/26 08:58:26;;;;;;;4.32;3.50;;;23.80;56.50;;;;;;20781857;28;81136;-70
2021/07/26 09:08:36;;;;;;;4.68;3.30;;;24.00;56.20;;;;;;20756267;28;81349;-72
2021/07/26 09:18:40;;;;;;;6.53;4.25;;;24.30;55.00;;;;;;20761505;28;81396;-73
2021/07/26 09:28:42;;;;;;;5.82;3.40;;;24.60;54.30;;;;;;20772539;28;81805;-68
2021/07/26 09:39:02;;;;;;;5.28;3.50;;;25.20;52.80;;;;;;20785021;28;81826;-70
2021/07/26 09:49:13;;;;;;;5.85;4.07;;;25.60;52.10;;;;;;20736563;28;81735;-71
2021/07/26 09:59:24;;;;;;;4.27;2.83;;;26.20;50.60;;;;;;20759514;28;81857;-71
2021/07/26 10:09:26;;;;;;;4.65;3.00;;;26.60;48.80;;;;;;20756681;28;81882;-69
2021/07/26 10:19:29;;;;;;;5.65;3.00;;;27.00;47.90;;;;;;20761476;28;80404;-70
2021/07/26 10:29:52;;;;;;;5.50;3.17;;;27.40;46.80;;;;;;20749998;28;81765;-69
2021/07/26 10:40:19;;;;;;;4.72;3.08;;;27.80;45.70;;;;;;20773072;28;81213;-69
2021/07/26 10:50:33;;;;;;;6.68;3.05;;;28.30;45.00;;;;;;20757039;28;80778;-69
2021/07/26 11:00:36;;;;;;;5.32;2.97;;;29.90;41.90;;;;;;20760972;28;82924;-69
2021/07/26 11:10:48;;;;;;;4.38;2.83;;;32.60;36.90;;;;;;20744434;28;81120;-69
2021/07/26 11:20:58;;;;;;;3.65;2.20;;;33.40;34.70;;;;;;20762792;28;81831;-69
2021/07/26 11:31:01;;;;;;;4.07;2.60;;;35.00;32.00;;;;;;20754474;28;82525;-71
2021/07/26 11:41:16;;;;;;;4.50;2.65;;;37.10;29.50;;;;;;20766078;28;81755;-71
2021/07/26 11:51:33;;;;;;;3.72;2.22;;;39.10;27.20;;;;;;20751802;28;81465;-70
2021/07/26 12:01:36;;;;;;;3.88;2.65;;;40.50;25.20;;;;;;20766760;28;81699;-70
2021/07/26 12:11:39;;;;;;;4.97;3.92;;;40.30;25.50;;;;;;20756185;28;81860;-70
2021/07/26 12:21:44;;;;;;;5.15;3.97;;;40.10;25.10;;;;;;20775790;28;80804;-71
2021/07/26 12:31:45;;;;;;;15.35;3.30;;;40.80;24.80;;;;;;20761470;28;82497;-72
2021/07/26 12:41:50;;;;;;;3.75;3.20;;;44.00;21.60;;;;;;20773740;28;81801;-71
2021/07/26 12:51:53;;;;;;;4.35;3.58;;;44.20;20.50;;;;;;20780654;28;81123;-71
2021/07/26 13:01:54;;;;;;;3.35;3.05;;;43.10;21.70;;;;;;20778567;28;81660;-71
2021/07/26 13:11:56;;;;;;;3.88;2.60;;;43.50;20.50;;;;;;20778086;28;80827;-69
2021/07/26 13:21:59;;;;;;;5.50;4.93;;;44.40;20.50;;;;;;20783877;28;80960;-67
2021/07/26 13:32:01;;;;;;;4.13;3.50;;;44.50;20.40;;;;;;20772591;28;81354;-68
2021/07/26 13:42:04;;;;;;;4.65;3.45;;;44.90;20.00;;;;;;20792146;28;80718;-68
2021/07/26 13:52:06;;;;;;;4.22;2.80;;;44.40;20.00;;;;;;20784674;28;81058;-69
2021/07/26 14:02:14;;;;;;;3.70;3.00;;;40.60;22.40;;;;;;20768368;28;81355;-68
2021/07/26 14:12:20;;;;;;;3.70;2.75;;;37.20;25.90;;;;;;20779761;28;80544;-70
2021/07/26 14:22:25;;;;;;;3.63;2.80;;;35.50;26.90;;;;;;20781466;28;82132;-71
2021/07/26 14:32:29;;;;;;;4.15;2.70;;;34.70;28.30;;;;;;20770193;28;81406;-68
2021/07/26 14:42:33;;;;;;;5.82;4.63;;;34.20;29.30;;;;;;20772149;28;81511;-69
2021/07/26 14:52:38;;;;;;;5.70;4.07;;;33.90;29.60;;;;;;20771429;28;81878;-69
2021/07/26 15:02:41;;;;;;;3.70;3.05;;;33.60;30.10;;;;;;20764683;28;81969;-69
2021/07/26 15:12:46;;;;;;;6.13;3.13;;;33.40;30.10;;;;;;20767979;28;80976;-70
2021/07/26 15:22:49;;;;;;;3.75;2.80;;;33.20;29.70;;;;;;20768068;28;80708;-69
2021/07/26 15:32:52;;;;;;;4.75;2.60;;;33.10;29.80;;;;;;20769934;28;81837;-69
2021/07/26 15:42:55;;;;;;;6.25;3.83;;;32.90;29.70;;;;;;20776429;28;81841;-71
2021/07/26 15:52:58;;;;;;;6.95;3.47;;;32.80;30.60;;;;;;20760660;28;80602;-68
2021/07/26 16:03:05;;;;;;;4.47;3.63;;;32.80;31.20;;;;;;20755723;28;80476;-70
2021/07/26 16:13:07;;;;;;;8.27;4.47;;;32.50;31.50;;;;;;20741699;28;81952;-69
2021/07/26 16:23:11;;;;;;;7.00;5.50;;;32.20;30.70;;;;;;20704906;28;80577;-70
2021/07/26 16:33:13;;;;;;;11.15;5.00;;;31.90;32.30;;;;;;20761752;28;80691;-70
2021/07/26 16:43:17;;;;;;;4.82;3.55;;;31.70;32.40;;;;;;20788552;28;80793;-69
2021/07/26 16:53:20;;;;;;;4.13;3.38;;;31.30;32.70;;;;;;20790958;28;80609;-69
2021/07/26 17:03:23;;;;;;;4.22;3.15;;;31.00;32.20;;;;;;20740469;28;80720;-71
2021/07/26 17:13:25;;;;;;;7.70;3.78;;;30.90;32.90;;;;;;20758673;28;80722;-69
2021/07/26 17:23:27;;;;;;;4.93;3.25;;;30.70;33.50;;;;;;20768507;28;81192;-71
2021/07/26 17:33:30;;;;;;;7.43;5.32;;;30.60;33.60;;;;;;20771867;28;80514;-71
2021/07/26 17:43:33;;;;;;;6.63;4.90;;;30.70;33.50;;;;;;20755716;28;81080;-71
2021/07/26 17:53:35;;;;;;;9.48;6.68;;;30.60;32.90;;;;;;20739537;28;82060;-73
2021/07/26 18:03:36;;;;;;;8.45;5.80;;;30.30;34.40;;;;;;20758317;28;80991;-71
2021/07/26 18:13:43;;;;;;;8.27;4.88;;;30.10;34.00;;;;;;20786437;28;82011;-70
2021/07/26 18:23:46;;;;;;;8.95;4.45;;;30.00;34.10;;;;;;20766595;28;80630;-69
2021/07/26 18:33:48;;;;;;;11.63;4.80;;;29.90;34.40;;;;;;20756669;28;80192;-69
2021/07/26 18:43:50;;;;;;;5.80;3.72;;;29.70;35.20;;;;;;20770522;28;80803;-70
2021/07/26 18:53:53;;;;;;;6.15;4.35;;;29.50;34.80;;;;;;20740930;28;81682;-71
2021/07/26 19:03:54;;;;;;;7.40;5.38;;;29.40;35.90;;;;;;20744674;28;82348;-70
2021/07/26 19:13:57;;;;;;;9.15;7.00;;;29.20;36.30;;;;;;20748316;28;80161;-71
2021/07/26 19:23:58;;;;;;;10.20;6.03;;;29.00;36.80;;;;;;20757947;28;81304;-70
2021/07/26 19:34:00;;;;;;;20.60;10.50;;;28.80;37.90;;;;;;20752149;28;80960;-70
2021/07/26 19:44:04;;;;;;;9.40;5.13;;;28.50;38.40;;;;;;20782104;28;83190;-69
2021/07/26 19:54:08;;;;;;;28.88;23.23;;;28.30;39.00;;;;;;20773332;28;84433;-68
2021/07/26 20:04:10;;;;;;;70.93;50.17;;;28.00;42.10;;;;;;20746550;28;82711;-68
2021/07/26 20:14:13;;;;;;;9.98;6.10;;;27.50;44.60;;;;;;20749002;28;83319;-67
2021/07/26 20:24:15;;;;;;;8.82;4.88;;;27.40;44.50;;;;;;20743374;28;83354;-66
2021/07/26 20:34:17;;;;;;;9.23;5.15;;;27.10;43.60;;;;;;20709356;28;80588;-66
2021/07/26 20:44:19;;;;;;;7.72;4.90;;;27.00;43.40;;;;;;20733377;28;81790;-65
2021/07/26 20:54:21;;;;;;;7.35;4.95;;;26.80;43.40;;;;;;20741148;28;80779;-65
2021/07/26 21:04:23;;;;;;;8.68;5.90;;;26.60;44.60;;;;;;20722495;28;80718;-68
2021/07/26 21:14:30;;;;;;;9.65;5.97;;;26.40;45.30;;;;;;20722327;28;80473;-69
2021/07/26 21:24:33;;;;;;;10.07;5.07;;;26.20;45.50;;;;;;20777169;28;80274;-70
2021/07/26 21:34:38;;;;;;;10.40;4.70;;;26.20;44.50;;;;;;20748234;28;81139;-69
2021/07/26 21:44:39;;;;;;;8.27;4.90;;;26.00;44.40;;;;;;20717661;28;81246;-69
2021/07/26 21:54:41;;;;;;;14.48;5.90;;;25.90;45.50;;;;;;20733571;28;80272;-69
2021/07/26 22:04:44;;;;;;;10.48;5.78;;;25.60;46.90;;;;;;20745880;28;80794;-69
2021/07/26 22:14:49;;;;;;;11.57;6.40;;;25.50;47.40;;;;;;20716063;28;81888;-69
2021/07/26 22:24:51;;;;;;;12.95;7.10;;;25.40;48.70;;;;;;20773308;28;80741;-69
2021/07/26 22:34:53;;;;;;;11.38;6.40;;;25.10;50.50;;;;;;20777476;28;80173;-68
2021/07/26 22:44:55;;;;;;;11.90;6.32;;;25.00;51.00;;;;;;20748830;28;80840;-68
2021/07/26 22:54:57;;;;;;;7.50;4.80;;;24.90;51.60;;;;;;20723201;28;80718;-68
2021/07/26 23:05:00;;;;;;;8.43;4.90;;;24.70;52.00;;;;;;20719763;28;80880;-67
2021/07/26 23:15:01;;;;;;;9.80;5.15;;;24.60;52.40;;;;;;20752252;28;80892;-67
2021/07/26 23:25:03;;;;;;;7.32;4.53;;;24.50;52.40;;;;;;20708372;28;80810;-67
2021/07/26 23:35:06;;;;;;;8.18;4.40;;;24.50;52.30;;;;;;20718005;28;81235;-66
2021/07/26 23:45:08;;;;;;;11.27;4.45;;;24.40;51.90;;;;;;20711011;28;80329;-68
2021/07/26 23:55:11;;;;;;;5.57;3.90;;;24.40;50.80;;;;;;20745370;28;82007;-69
